Overview Statistics Trail Chart Weather Telemetry Raw packets
 

This is the latest recevied weather packets stored in our database for station/object SV3AQT-13. If no packets are shown the sender has not sent any weather packets the latest 10 day(s).

<< 9 10 11 12 13 14 15 >>
Time Temp. Humidity Pressure Rain* Wind** Luminosity Snow
1788570302 19.44° C 70% 1018.2 hPa 0 mm 0 m/s - -
1788570121 18.89° C 75% 1018.2 hPa 0 mm 0 m/s - -
1788569942 19.44° C 72% 1018.2 hPa 0 mm 0 m/s - -
1788569762 18.89° C 73% 1018.2 hPa 0 mm 0 m/s - -
1788569581 18.89° C 74% 1018.2 hPa 0 mm 0 m/s - -
1788569401 18.89° C 75% 1018.2 hPa 0 mm 0 m/s - -
1788569221 19.44° C 74% 1018.2 hPa 0 mm 0 m/s - -
1788569043 18.89° C 73% 1018.2 hPa 0 mm 0 m/s - -
1788568862 18.33° C 76% 1018.2 hPa 0 mm 0 m/s - -
1788568681 18.33° C 77% 1018.2 hPa 0 mm 0 m/s - -
1788568502 18.89° C 76% 1018.2 hPa 0 mm 0 m/s - -
1788568321 18.89° C 74% 1018.2 hPa 0 mm 0 m/s - -
1788568141 19.44° C 75% 1018.2 hPa 0 mm 0 m/s - -
1788567962 19.44° C 74% 1018.2 hPa 0 mm 0 m/s - -
1788567781 19.44° C 73% 1018.2 hPa 0 mm 0 m/s - -
1788567601 19.44° C 74% 1018.2 hPa 0 mm 0 m/s - -
1788567421 20° C 73% 1018.2 hPa 0 mm 0 m/s - -
1788567263 20° C 71% 1018.2 hPa 0 mm 0 m/s - -
1788567063 20° C 71% 1018.2 hPa 0 mm 0 m/s - -
1788566881 20.56° C 70% 1018.2 hPa 0 mm 0 m/s - -
1788566701 20.56° C 70% 1018.2 hPa 0 mm 0 m/s - -
1788566522 20° C 72% 1018.2 hPa 0 mm 0 m/s - -
1788566341 20.56° C 70% 1018.2 hPa 0 mm 0 m/s - -
1788566162 20.56° C 70% 1018.2 hPa 0 mm 0 m/s - -
1788565983 21.11° C 69% 1018.2 hPa 0 mm 0 m/s - -

* Rain latest hour (hover to see other rain measurements)
** Current wind speed in m/s (hover to see current wind gust speed)